createdAt,value
2018-07-16T00:01:20.869Z,20.00
2018-07-16T00:03:49.387Z,20.10
2018-07-16T00:06:17.926Z,20.10
2018-07-16T00:08:46.460Z,20.10
2018-07-16T00:11:14.934Z,20.00
2018-07-16T00:13:43.485Z,20.00
2018-07-16T00:16:11.998Z,20.00
2018-07-16T00:18:40.493Z,20.00
2018-07-16T00:21:09.620Z,19.90
2018-07-16T00:23:38.135Z,19.80
2018-07-16T00:26:06.693Z,19.80
2018-07-16T00:28:35.197Z,19.80
2018-07-16T00:31:03.715Z,19.80
2018-07-16T00:33:32.452Z,19.80
2018-07-16T00:36:00.960Z,19.80
2018-07-16T00:38:29.490Z,19.80
2018-07-16T00:40:58.093Z,19.80
2018-07-16T00:43:26.660Z,19.80
2018-07-16T00:45:55.266Z,19.70
2018-07-16T00:48:23.756Z,19.80
2018-07-16T00:50:52.256Z,19.80
2018-07-16T00:53:20.739Z,19.80
2018-07-16T00:55:49.376Z,19.80
2018-07-16T00:58:17.734Z,19.80
2018-07-16T01:00:46.220Z,19.80
2018-07-16T01:03:14.695Z,19.80
2018-07-16T01:05:43.175Z,19.80
2018-07-16T01:08:11.698Z,19.70
2018-07-16T01:10:40.192Z,19.70
2018-07-16T01:13:08.724Z,19.70
2018-07-16T01:15:37.363Z,19.60
2018-07-16T01:18:06.167Z,19.60
2018-07-16T01:20:34.777Z,19.50
2018-07-16T01:23:03.267Z,19.50
2018-07-16T01:25:31.750Z,19.50
2018-07-16T01:28:00.272Z,19.50
2018-07-16T01:30:28.766Z,19.40
2018-07-16T01:32:57.222Z,19.40
2018-07-16T01:35:25.784Z,19.40
2018-07-16T01:37:54.227Z,19.40
2018-07-16T01:40:22.768Z,19.40
2018-07-16T01:42:51.252Z,19.40
2018-07-16T01:45:19.766Z,19.50
2018-07-16T01:47:48.234Z,19.50
2018-07-16T01:50:16.780Z,19.60
2018-07-16T01:52:45.300Z,19.60
2018-07-16T01:55:13.846Z,19.50
2018-07-16T01:57:42.337Z,19.40
2018-07-16T02:00:10.883Z,19.30
2018-07-16T02:02:39.406Z,19.20
2018-07-16T02:05:09.506Z,19.20
2018-07-16T02:07:46.346Z,19.10
2018-07-16T02:10:14.834Z,19.00
2018-07-16T02:12:43.909Z,19.00
2018-07-16T02:15:12.843Z,18.90
2018-07-16T02:20:15.383Z,18.90
2018-07-16T02:22:43.872Z,18.80
2018-07-16T02:25:12.516Z,18.80
2018-07-16T02:27:41.043Z,18.80
2018-07-16T02:30:09.558Z,18.80
2018-07-16T02:32:38.040Z,18.80
2018-07-16T02:35:06.608Z,18.80
2018-07-16T02:37:35.105Z,18.80
2018-07-16T02:40:10.650Z,18.70
2018-07-16T02:42:39.260Z,18.80
2018-07-16T02:45:07.850Z,18.80
2018-07-16T02:47:36.351Z,18.80
2018-07-16T02:50:04.863Z,18.80
2018-07-16T02:52:33.413Z,18.80
2018-07-16T02:55:02.063Z,18.70
2018-07-16T02:57:30.548Z,18.70
2018-07-16T02:59:59.237Z,18.70
2018-07-16T03:02:27.862Z,18.70
2018-07-16T03:04:56.363Z,18.80
2018-07-16T03:07:24.927Z,18.80
2018-07-16T03:09:54.036Z,18.80
2018-07-16T03:12:22.576Z,18.80
2018-07-16T03:14:51.066Z,18.80
2018-07-16T03:17:19.599Z,18.80
2018-07-16T03:19:48.229Z,18.80
2018-07-16T03:22:16.850Z,18.80
2018-07-16T03:24:45.389Z,18.90
2018-07-16T03:27:19.904Z,18.90
2018-07-16T03:29:48.454Z,18.90
2018-07-16T03:32:17.175Z,18.90
2018-07-16T03:34:48.026Z,19.00
2018-07-16T03:37:16.820Z,19.00
2018-07-16T03:39:50.669Z,19.00
2018-07-16T03:42:23.657Z,18.90
2018-07-16T03:44:52.313Z,18.90
2018-07-16T03:47:20.761Z,18.80
2018-07-16T03:49:49.243Z,18.70
2018-07-16T03:52:17.780Z,18.70
2018-07-16T03:54:46.291Z,18.70
2018-07-16T03:57:14.841Z,18.70
2018-07-16T03:59:43.365Z,18.70
2018-07-16T04:02:11.873Z,18.60
2018-07-16T04:04:40.386Z,18.60
2018-07-16T04:07:08.899Z,18.60
2018-07-16T04:09:37.421Z,18.60
2018-07-16T04:12:05.950Z,18.60
2018-07-16T04:14:34.486Z,18.60
2018-07-16T04:17:02.986Z,18.60
2018-07-16T04:19:31.536Z,18.60
2018-07-16T04:22:00.067Z,18.60
2018-07-16T04:24:28.595Z,18.60
2018-07-16T04:26:57.088Z,18.60
2018-07-16T04:29:25.596Z,18.60
2018-07-16T04:31:54.951Z,18.60
2018-07-16T04:34:23.527Z,18.60
2018-07-16T04:36:52.101Z,18.60
2018-07-16T04:39:20.656Z,18.70
2018-07-16T04:41:49.124Z,18.70
2018-07-16T04:44:17.685Z,18.70
2018-07-16T04:46:46.143Z,18.70
2018-07-16T04:49:14.634Z,18.70
2018-07-16T04:51:43.148Z,18.70
2018-07-16T04:54:16.505Z,18.80
2018-07-16T04:56:45.169Z,18.80
2018-07-16T04:59:13.663Z,18.90
2018-07-16T05:01:42.323Z,19.00
2018-07-16T05:04:10.913Z,19.10
2018-07-16T05:06:39.406Z,19.10
2018-07-16T05:09:07.922Z,19.20
2018-07-16T05:11:36.351Z,19.20
2018-07-16T05:14:04.962Z,19.20
2018-07-16T05:16:33.446Z,19.20
2018-07-16T05:19:01.971Z,19.30
2018-07-16T05:21:30.437Z,19.40
2018-07-16T05:23:58.993Z,19.50
2018-07-16T05:26:27.455Z,19.60
2018-07-16T05:28:56.654Z,19.70
2018-07-16T05:31:25.138Z,19.90
2018-07-16T05:33:53.685Z,20.00
2018-07-16T05:36:22.154Z,20.20
2018-07-16T05:38:50.640Z,20.30
2018-07-16T05:41:19.307Z,20.40
2018-07-16T05:43:47.827Z,20.60
2018-07-16T05:46:16.387Z,20.70
2018-07-16T05:48:44.875Z,20.90
2018-07-16T05:51:13.370Z,21.00
2018-07-16T05:53:41.937Z,21.00
2018-07-16T05:56:10.470Z,21.10
2018-07-16T05:58:38.958Z,21.30
2018-07-16T06:01:07.620Z,21.40
2018-07-16T06:03:36.132Z,21.50
2018-07-16T06:06:04.671Z,21.70
2018-07-16T06:08:33.976Z,21.90
2018-07-16T06:11:02.529Z,22.00
2018-07-16T06:13:31.047Z,22.10
2018-07-16T06:15:59.561Z,22.30
2018-07-16T06:18:28.123Z,22.30
2018-07-16T06:20:56.609Z,22.30
2018-07-16T06:23:25.104Z,22.30
2018-07-16T06:25:53.657Z,22.30
2018-07-16T06:28:22.122Z,22.40
2018-07-16T06:30:50.618Z,22.40
2018-07-16T06:33:19.089Z,22.40
2018-07-16T06:35:47.635Z,22.40
2018-07-16T06:38:16.098Z,22.40
2018-07-16T06:40:45.107Z,22.50
2018-07-16T06:43:13.376Z,22.60
2018-07-16T06:45:41.937Z,22.70
2018-07-16T06:48:10.449Z,22.80
2018-07-16T06:50:39.101Z,22.80
2018-07-16T06:53:07.602Z,22.70
2018-07-16T06:55:36.223Z,22.70
2018-07-16T06:58:04.773Z,22.60
2018-07-16T07:00:33.445Z,22.60
2018-07-16T07:03:01.917Z,22.60
2018-07-16T07:05:30.430Z,22.50
2018-07-16T07:07:58.969Z,22.40
2018-07-16T07:10:27.463Z,22.40
2018-07-16T07:12:55.994Z,22.30
2018-07-16T07:15:24.514Z,22.30
2018-07-16T07:17:53.000Z,22.30
2018-07-16T07:20:21.583Z,22.30
2018-07-16T07:22:50.544Z,22.40
2018-07-16T07:25:19.159Z,22.30
2018-07-16T07:27:47.683Z,22.30
2018-07-16T07:30:16.242Z,22.30
2018-07-16T07:32:44.798Z,22.20
2018-07-16T07:35:13.476Z,22.20
2018-07-16T07:37:41.888Z,22.20
2018-07-16T07:40:10.558Z,22.10
2018-07-16T07:45:39.127Z,21.70
2018-07-16T07:48:07.688Z,21.60
2018-07-16T07:50:36.193Z,21.50
2018-07-16T07:53:04.799Z,21.40
2018-07-16T07:55:33.358Z,21.40
2018-07-16T07:58:02.962Z,21.30
2018-07-16T08:00:31.472Z,21.30
2018-07-16T08:03:00.129Z,21.20
2018-07-16T08:05:28.731Z,21.20
2018-07-16T08:07:57.316Z,21.20
2018-07-16T08:10:25.916Z,21.20
2018-07-16T08:12:55.350Z,21.20
2018-07-16T08:15:23.920Z,21.10
2018-07-16T08:17:52.450Z,21.10
2018-07-16T08:20:20.987Z,21.10
2018-07-16T08:22:49.477Z,21.10
2018-07-16T08:25:18.053Z,21.10
2018-07-16T08:27:46.523Z,21.00
2018-07-16T08:30:15.010Z,21.00
2018-07-16T08:32:43.549Z,21.00
2018-07-16T08:35:12.095Z,20.90
2018-07-16T08:37:40.675Z,20.90
2018-07-16T08:40:09.290Z,20.90
2018-07-16T08:42:38.582Z,20.90
2018-07-16T08:45:07.191Z,20.90
2018-07-16T08:47:35.719Z,21.00
2018-07-16T08:50:04.435Z,21.00
2018-07-16T08:52:32.988Z,21.00
2018-07-16T08:55:01.583Z,21.10
2018-07-16T08:57:30.080Z,21.20
2018-07-16T09:06:41.764Z,21.20
2018-07-16T09:09:10.374Z,21.20
2018-07-16T09:11:38.959Z,21.30
2018-07-16T09:16:36.837Z,21.50
2018-07-16T09:19:05.390Z,21.70
2018-07-16T09:21:33.857Z,21.90
2018-07-16T09:24:02.451Z,22.00
2018-07-16T09:26:31.183Z,22.20
2018-07-16T09:28:59.651Z,22.40
2018-07-16T09:31:28.285Z,22.70
2018-07-16T09:33:56.768Z,22.90
2018-07-16T09:36:25.371Z,23.00
2018-07-16T09:38:53.995Z,23.20
2018-07-16T09:41:22.539Z,23.30
2018-07-16T09:43:52.748Z,23.40
2018-07-16T09:46:21.275Z,23.40
2018-07-16T09:52:39.522Z,23.70
2018-07-16T09:55:09.500Z,24.30
2018-07-16T09:57:41.113Z,24.40
2018-07-16T10:00:13.273Z,24.60
2018-07-16T10:02:47.019Z,25.00
2018-07-16T10:05:31.281Z,25.20
2018-07-16T10:08:02.845Z,25.50
2018-07-16T10:10:37.343Z,25.60
2018-07-16T10:13:08.650Z,25.70
2018-07-16T10:15:38.809Z,26.00
2018-07-16T10:18:08.960Z,26.10
2018-07-16T10:20:40.172Z,26.10
2018-07-16T10:23:15.222Z,26.30
2018-07-16T10:25:47.540Z,26.40
2018-07-16T10:28:20.859Z,26.60
2018-07-16T10:30:53.453Z,26.70
2018-07-16T10:33:25.845Z,26.80
2018-07-16T10:36:01.348Z,27.00
2018-07-16T10:38:32.568Z,27.20
2018-07-16T10:41:01.352Z,27.20
2018-07-16T10:43:30.066Z,27.10
2018-07-16T10:45:58.576Z,27.20
2018-07-16T10:48:27.091Z,27.30
2018-07-16T10:50:55.597Z,27.30
2018-07-16T10:55:52.310Z,27.80
2018-07-16T10:58:20.791Z,28.10
2018-07-16T11:00:49.336Z,28.20
2018-07-16T11:03:17.932Z,28.20
2018-07-16T11:05:46.553Z,28.20
2018-07-16T11:08:15.099Z,28.30
2018-07-16T11:10:43.594Z,28.30
2018-07-16T11:13:12.068Z,28.40
2018-07-16T11:15:40.655Z,28.40
2018-07-16T11:18:09.219Z,28.40
2018-07-16T11:20:37.715Z,28.50
2018-07-16T11:23:06.352Z,28.80
2018-07-16T11:25:34.894Z,29.20
2018-07-16T11:28:03.400Z,29.50
2018-07-16T11:30:31.886Z,29.70
2018-07-16T11:33:03.181Z,29.90
2018-07-16T12:48:10.719Z,41.40
2018-07-16T12:50:39.468Z,41.20
2018-07-16T12:53:08.160Z,40.80
2018-07-16T13:59:40.752Z,40.60
2018-07-16T14:02:09.264Z,40.10
2018-07-16T14:04:37.739Z,39.80
2018-07-16T15:10:48.397Z,34.90
2018-07-16T15:13:16.848Z,34.80
2018-07-16T16:19:02.926Z,33.00
2018-07-16T16:21:31.615Z,33.10
2018-07-16T16:24:00.051Z,32.90
2018-07-16T17:29:02.959Z,30.00
2018-07-16T17:31:32.242Z,30.40
2018-07-16T17:34:00.793Z,30.60
2018-07-16T18:40:19.363Z,24.50
2018-07-16T18:42:47.947Z,24.50
2018-07-16T18:45:16.420Z,24.40
2018-07-16T19:48:51.455Z,22.60
2018-07-16T19:51:20.015Z,22.60
2018-07-16T19:53:48.559Z,22.50
2018-07-16T20:38:57.898Z,21.70
2018-07-16T20:41:28.889Z,21.70
2018-07-16T20:43:59.297Z,21.70
2018-07-16T20:46:30.819Z,21.70
2018-07-16T20:49:03.941Z,21.70
2018-07-16T20:51:37.302Z,21.60
2018-07-16T20:54:06.428Z,21.50
2018-07-16T20:56:35.845Z,21.50
2018-07-16T20:59:04.994Z,21.50
2018-07-16T21:01:33.609Z,21.40
2018-07-16T21:04:03.548Z,21.40
2018-07-16T21:06:32.321Z,21.30
2018-07-16T21:09:04.002Z,21.30
2018-07-16T21:11:35.621Z,21.20
2018-07-16T21:14:06.123Z,21.10
2018-07-16T21:16:38.179Z,21.10
2018-07-16T21:19:07.798Z,21.10
2018-07-16T21:21:38.365Z,20.90
2018-07-16T21:24:09.517Z,20.70
2018-07-16T21:26:40.264Z,20.60
2018-07-16T21:29:13.064Z,20.50
2018-07-16T21:31:44.027Z,20.50
2018-07-16T21:34:14.854Z,20.50
2018-07-16T21:36:50.045Z,20.50
2018-07-16T21:39:22.805Z,20.60
2018-07-16T21:41:52.022Z,20.60
2018-07-16T21:44:22.612Z,20.80
2018-07-16T21:46:56.088Z,20.90
2018-07-16T21:49:28.471Z,20.80
2018-07-16T21:51:59.374Z,20.70
2018-07-16T21:54:32.695Z,20.70
2018-07-16T21:57:03.510Z,20.60
2018-07-16T21:59:37.574Z,20.60
2018-07-16T22:02:07.681Z,20.60
2018-07-16T22:04:36.598Z,20.60
2018-07-16T22:07:08.600Z,20.50
2018-07-16T22:09:40.626Z,20.50
2018-07-16T22:12:13.755Z,20.40
2018-07-16T22:14:45.427Z,20.40
2018-07-16T22:17:15.082Z,20.30
2018-07-16T22:19:44.327Z,20.30
2018-07-16T22:22:14.986Z,20.30
2018-07-16T22:24:47.609Z,20.20
2018-07-16T22:27:20.949Z,20.10
2018-07-16T22:29:52.953Z,20.10
2018-07-16T22:32:23.595Z,20.00
2018-07-16T22:37:32.904Z,19.90
2018-07-16T22:40:04.249Z,19.90
2018-07-16T22:42:35.672Z,19.80
2018-07-16T22:45:05.900Z,19.80
2018-07-16T22:47:36.659Z,19.80
2018-07-16T22:50:07.661Z,19.80
2018-07-16T22:52:38.138Z,19.80
2018-07-16T22:55:07.079Z,19.80
2018-07-16T22:57:38.245Z,19.80
2018-07-16T23:00:08.258Z,19.80
2018-07-16T23:02:42.626Z,19.80
2018-07-16T23:05:15.019Z,19.80
2018-07-16T23:07:45.326Z,19.80
2018-07-16T23:10:18.335Z,19.70
2018-07-16T23:12:48.650Z,19.70
2018-07-16T23:15:19.813Z,19.60
2018-07-16T23:17:49.936Z,19.50
2018-07-16T23:20:19.428Z,19.40
2018-07-16T23:22:57.547Z,19.40
2018-07-16T23:25:26.251Z,19.40
2018-07-16T23:27:54.791Z,19.40
2018-07-16T23:30:23.487Z,19.40
2018-07-16T23:32:51.987Z,19.40
2018-07-16T23:35:20.469Z,19.30
2018-07-16T23:37:49.033Z,19.30
2018-07-16T23:40:17.579Z,19.20
2018-07-16T23:42:48.727Z,19.20
2018-07-16T23:45:17.200Z,19.20
2018-07-16T23:47:46.639Z,19.20
2018-07-16T23:50:15.194Z,19.20
2018-07-16T23:52:43.643Z,19.30
2018-07-16T23:55:12.170Z,19.30
2018-07-16T23:57:40.737Z,19.30
